Time;durP1;ratioP1;P1;durP2;ratioP2;P2;SDS_P1;SDS_P2;PMS_P1;PMS_P2;Temp;Humidity;BMP_temperature;BMP_pressure;BME280_temperature;BME280_humidity;BME280_pressure;Samples;Min_cycle;Max_cycle;Signal;HPM_P1;HPM_P2
2022/05/20 00:00:22;;;;;;;;;;;;;;;18.34;75.36;97438.06;30001;982;1869;-57
2022/05/20 00:01:01;;;;;;;;;;;;;;;18.34;75.37;97435.34;30001;982;1868;-58
2022/05/20 00:01:33;;;;;;;;;;;;;;;18.33;75.69;97433.72;30001;982;1882;-57
2022/05/20 00:02:04;;;;;;;;;;;;;;;18.33;75.66;97436.47;30001;982;1878;-59
2022/05/20 00:02:36;;;;;;;;;;;;;;;18.34;75.57;97433.37;30001;982;1882;-57
2022/05/20 00:03:07;;;;;;;;;;;;;;;18.33;75.52;97426.28;30001;982;1877;-56
2022/05/20 00:03:39;;;;;;;;;;;;;;;18.32;75.38;97434.84;30001;983;1881;-58
2022/05/20 00:04:09;;;;;;;;;;;;;;;18.29;75.83;97435.50;30001;983;1877;-58
2022/05/20 00:04:42;;;;;;;;;;;;;;;18.30;75.70;97431.63;30001;983;1881;-56
2022/05/20 00:05:13;;;;;;;;;;;;;;;18.31;75.38;97430.50;30001;983;1877;-58
2022/05/20 00:05:44;;;;;;;;;;;;;;;18.28;75.90;97434.69;30001;983;1868;-60
2022/05/20 00:06:18;;;;;;;;;;;;;;;18.26;76.02;97430.66;30001;983;1868;-57
2022/05/20 00:06:50;;;;;;;;;;;;;;;18.24;75.72;97424.69;30001;983;1881;-63
2022/05/20 00:07:21;;;;;;;;;;;;;;;18.23;75.76;97431.31;30001;983;1877;-57
2022/05/20 00:07:51;;;;;;;;;;;;;;;18.20;76.01;97430.03;30001;982;1881;-57
2022/05/20 00:08:22;;;;;;;;;;;;;;;18.20;76.14;97427.28;30001;982;1877;-56
2022/05/20 00:08:54;;;;;;;;;;;;;;;18.23;75.73;97425.84;30001;982;1882;-58
2022/05/20 00:09:25;;;;;;;;;;;;;;;18.22;76.05;97422.28;30001;982;1878;-58
2022/05/20 00:09:55;;;;;;;;;;;;;;;18.24;76.12;97422.75;30001;982;1882;-58
2022/05/20 00:10:28;;;;;;;;;;;;;;;18.22;75.99;97419.53;30001;982;1820;-57
2022/05/20 00:10:59;;;;;;;;;;;;;;;18.21;76.01;97422.59;30001;983;1868;-59
2022/05/20 00:11:30;;;;;;;;;;;;;;;18.22;76.06;97418.72;30001;983;1868;-57
2022/05/20 00:12:02;;;;;;;;;;;;;;;18.22;75.96;97414.03;30001;983;1881;-57
2022/05/20 00:12:33;;;;;;;;;;;;;;;18.20;76.06;97421.00;30001;983;1877;-57
2022/05/20 00:13:04;;;;;;;;;;;;;;;18.19;76.14;97424.87;30001;983;1881;-57
2022/05/20 00:13:35;;;;;;;;;;;;;;;18.16;76.11;97422.78;30001;983;1877;-57
2022/05/20 00:14:06;;;;;;;;;;;;;;;18.17;76.06;97419.72;30001;983;1881;-57
2022/05/20 00:14:37;;;;;;;;;;;;;;;18.16;76.38;97425.53;30001;983;1877;-56
2022/05/20 00:15:12;;;;;;;;;;;;;;;18.15;76.14;97429.41;30001;982;1882;-58
2022/05/20 00:15:44;;;;;;;;;;;;;;;18.15;76.01;97423.91;30001;982;1877;-57
2022/05/20 00:16:15;;;;;;;;;;;;;;;18.15;76.15;97418.44;30001;982;1869;-57
2022/05/20 00:16:46;;;;;;;;;;;;;;;18.14;76.05;97428.59;30001;982;1869;-57
2022/05/20 00:17:18;;;;;;;;;;;;;;;18.12;76.07;97427.31;30001;982;1882;-57
2022/05/20 00:17:49;;;;;;;;;;;;;;;18.10;76.40;97419.41;30001;982;1877;-57
2022/05/20 00:18:20;;;;;;;;;;;;;;;18.07;76.15;97414.56;30001;983;1881;-57
2022/05/20 00:18:51;;;;;;;;;;;;;;;18.08;76.42;97425.22;30001;983;1877;-57
2022/05/20 00:19:22;;;;;;;;;;;;;;;18.12;75.85;97419.09;30001;983;1881;-57
2022/05/20 00:19:52;;;;;;;;;;;;;;;18.11;76.18;97425.72;30001;983;1877;-56
2022/05/20 00:20:25;;;;;;;;;;;;;;;18.13;75.67;97420.69;30001;983;1881;-57
2022/05/20 00:20:59;;;;;;;;;;;;;;;18.13;75.75;97417.94;30001;983;1877;-57
2022/05/20 00:21:30;;;;;;;;;;;;;;;18.13;75.94;97426.19;30001;983;1868;-57
2022/05/20 00:22:01;;;;;;;;;;;;;;;18.11;75.90;97417.47;30001;983;1868;-57
2022/05/20 00:22:32;;;;;;;;;;;;;;;18.11;75.98;97409.22;30001;982;1881;-56
2022/05/20 00:23:03;;;;;;;;;;;;;;;18.11;76.11;97414.72;30001;982;1877;-57
2022/05/20 00:23:34;;;;;;;;;;;;;;;18.07;75.78;97417.31;30001;982;1882;-57
2022/05/20 00:24:05;;;;;;;;;;;;;;;18.06;75.84;97422.00;30001;982;1877;-56
2022/05/20 00:25:45;;;;;;;;;;;;;;;18.09;75.95;97421.34;30001;982;1869;-56
2022/05/20 00:26:16;;;;;;;;;;;;;;;18.08;75.72;97408.75;30001;983;1881;-56
2022/05/20 00:26:47;;;;;;;;;;;;;;;18.11;75.70;97411.97;30001;983;1877;-56
2022/05/20 00:27:18;;;;;;;;;;;;;;;18.06;75.91;97408.28;30001;983;1868;-57
2022/05/20 00:27:49;;;;;;;;;;;;;;;18.06;75.87;97411.03;30001;983;1855;-56
2022/05/20 00:28:24;;;;;;;;;;;;;;;18.05;76.13;97403.91;30001;983;1881;-61
2022/05/20 00:28:55;;;;;;;;;;;;;;;18.02;76.07;97415.56;30001;983;1877;-58
2022/05/20 00:29:26;;;;;;;;;;;;;;;18.01;76.10;97411.22;30001;983;1882;-57
2022/05/20 00:29:57;;;;;;;;;;;;;;;18.01;76.44;97411.22;30001;983;1877;-59
2022/05/20 00:30:32;;;;;;;;;;;;;;;18.02;76.17;97410.06;30001;982;1869;-56
2022/05/20 00:31:08;;;;;;;;;;;;;;;18.03;76.47;97411.69;30001;982;1869;-57
2022/05/20 00:31:39;;;;;;;;;;;;;;;18.06;76.12;97410.22;30001;982;1869;-57
2022/05/20 00:32:10;;;;;;;;;;;;;;;18.03;76.25;97408.94;30001;982;1855;-57
2022/05/20 00:32:41;;;;;;;;;;;;;;;18.04;76.12;97407.00;30001;983;1881;-57
2022/05/20 00:33:13;;;;;;;;;;;;;;;18.03;75.94;97406.19;30001;983;1864;-57
2022/05/20 00:33:44;;;;;;;;;;;;;;;18.01;76.04;97413.97;30001;983;1859;-57
2022/05/20 00:34:16;;;;;;;;;;;;;;;18.00;76.14;97406.06;30001;983;1877;-57
2022/05/20 00:34:47;;;;;;;;;;;;;;;18.02;75.72;97404.56;30001;983;1881;-57
2022/05/20 00:35:20;;;;;;;;;;;;;;;18.01;76.20;97408.47;30001;983;1877;-57
2022/05/20 00:35:51;;;;;;;;;;;;;;;18.01;76.27;97404.94;30001;958;1893;-57
2022/05/20 00:36:22;;;;;;;;;;;;;;;18.02;76.10;97407.31;30001;983;1868;-57
2022/05/20 00:36:55;;;;;;;;;;;;;;;18.02;76.11;97410.06;30001;983;1881;-57
2022/05/20 00:37:26;;;;;;;;;;;;;;;18.00;75.90;97406.88;30001;983;1877;-57
2022/05/20 00:37:56;;;;;;;;;;;;;;;17.98;76.03;97406.38;30001;982;1881;-56
2022/05/20 00:38:27;;;;;;;;;;;;;;;17.98;76.29;97411.88;30001;982;1878;-56
2022/05/20 00:38:58;;;;;;;;;;;;;;;17.99;76.37;97413.50;30001;982;1869;-57
2022/05/20 00:39:29;;;;;;;;;;;;;;;17.97;76.12;97407.53;30001;970;1890;-58
2022/05/20 00:39:59;;;;;;;;;;;;;;;18.00;75.83;97411.56;30001;982;1882;-57
2022/05/20 00:40:31;;;;;;;;;;;;;;;18.01;75.97;97408.47;30001;983;1876;-56
2022/05/20 00:41:03;;;;;;;;;;;;;;;17.99;75.98;97415.44;30001;983;1881;-58
2022/05/20 00:41:34;;;;;;;;;;;;;;;17.97;75.80;97415.75;30001;983;1864;-57
2022/05/20 00:42:16;;;;;;;;;;;;;;;17.95;76.04;97418.03;30001;983;1873;-57
2022/05/20 00:42:48;;;;;;;;;;;;;;;17.93;76.22;97412.06;30001;983;1877;-56
2022/05/20 00:43:45;;;;;;;;;;;;;;;17.91;76.05;97414.31;30001;983;1881;-58
2022/05/20 00:44:16;;;;;;;;;;;;;;;17.90;76.44;97418.19;30001;983;1873;-56
2022/05/20 00:44:47;;;;;;;;;;;;;;;17.89;76.22;97415.78;30001;983;1882;-57
2022/05/20 00:45:18;;;;;;;;;;;;;;;17.88;76.52;97414.16;30001;982;1864;-57
2022/05/20 00:45:49;;;;;;;;;;;;;;;17.88;76.39;97411.41;30001;982;1873;-56
2022/05/20 00:46:22;;;;;;;;;;;;;;;17.90;76.49;97414.66;30001;982;1877;-57
2022/05/20 00:46:52;;;;;;;;;;;;;;;17.90;76.44;97411.91;30001;982;1882;-57
2022/05/20 00:47:23;;;;;;;;;;;;;;;17.89;76.44;97411.09;30001;982;1864;-57
2022/05/20 00:47:55;;;;;;;;;;;;;;;17.94;76.13;97413.66;30001;983;1872;-57
2022/05/20 00:48:26;;;;;;;;;;;;;;;17.97;75.70;97406.72;30001;983;1877;-57
2022/05/20 00:49:07;;;;;;;;;;;;;;;18.02;75.45;97410.06;30001;983;1881;-57
2022/05/20 00:49:40;;;;;;;;;;;;;;;18.02;75.41;97407.31;30001;983;1864;-56
2022/05/20 00:50:14;;;;;;;;;;;;;;;18.00;75.37;97412.34;30001;983;1872;-57
2022/05/20 00:50:51;;;;;;;;;;;;;;;17.99;75.55;97407.19;30001;983;1877;-57
2022/05/20 00:51:30;;;;;;;;;;;;;;;17.98;75.85;97405.59;30001;983;1882;-56
2022/05/20 00:52:02;;;;;;;;;;;;;;;17.97;76.01;97407.53;30001;983;1877;-56
2022/05/20 00:52:35;;;;;;;;;;;;;;;17.99;75.35;97399.75;30001;983;1881;-58
2022/05/20 00:53:07;;;;;;;;;;;;;;;18.01;75.29;97407.66;30001;982;1877;-58
2022/05/20 00:53:44;;;;;;;;;;;;;;;18.01;75.33;97397.50;30001;982;1868;-58
2022/05/20 00:54:19;;;;;;;;;;;;;;;18.00;75.27;97393.13;30001;982;1869;-57
2022/05/20 00:54:53;;;;;;;;;;;;;;;18.02;75.43;97393.59;30001;982;1882;-57
2022/05/20 00:55:24;;;;;;;;;;;;;;;18.10;74.89;97386.47;30001;983;1877;-58
2022/05/20 00:55:55;;;;;;;;;;;;;;;18.14;74.34;97390.16;30001;983;1881;-57
2022/05/20 00:56:31;;;;;;;;;;;;;;;18.17;74.73;97388.69;30001;983;1877;-57
2022/05/20 00:57:08;;;;;;;;;;;;;;;18.14;74.58;97389.34;30001;983;1881;-56
2022/05/20 00:58:00;;;;;;;;;;;;;;;18.13;74.65;97385.81;30001;983;1877;-58
2022/05/20 00:58:31;;;;;;;;;;;;;;;18.09;74.50;97388.41;30001;983;1864;-57
2022/05/20 00:59:04;;;;;;;;;;;;;;;18.08;74.91;97386.78;30001;974;1887;-57
2022/05/20 00:59:36;;;;;;;;;;;;;;;18.06;74.63;97391.00;30001;982;1882;-58
2022/05/20 01:00:10;;;;;;;;;;;;;;;18.05;74.91;97392.13;30001;982;1877;-56
2022/05/20 01:00:45;;;;;;;;;;;;;;;18.05;74.83;97392.94;30001;982;1882;-57
2022/05/20 01:01:16;;;;;;;;;;;;;;;18.08;74.72;97400.50;30001;982;1877;-56
2022/05/20 01:01:52;;;;;;;;;;;;;;;18.07;74.95;97400.84;30001;982;1869;-56
2022/05/20 01:02:24;;;;;;;;;;;;;;;18.03;75.01;97399.88;30001;982;1869;-57
2022/05/20 01:03:06;;;;;;;;;;;;;;;18.04;74.88;97401.50;30001;983;1881;-57
2022/05/20 01:03:41;;;;;;;;;;;;;;;18.06;74.62;97400.03;30001;983;1877;-56
2022/05/20 01:04:13;;;;;;;;;;;;;;;18.07;74.67;97390.66;30001;983;1881;-58
2022/05/20 01:04:43;;;;;;;;;;;;;;;18.09;74.46;97393.87;30001;983;1877;-56
2022/05/20 01:05:17;;;;;;;;;;;;;;;18.13;74.21;97393.22;30001;983;1881;-59
2022/05/20 01:05:49;;;;;;;;;;;;;;;18.16;74.24;97398.06;30001;983;1877;-57
2022/05/20 01:06:22;;;;;;;;;;;;;;;18.19;73.74;97400.16;30001;983;1868;-57
2022/05/20 01:06:53;;;;;;;;;;;;;;;18.25;73.81;97393.34;30001;983;1868;-57
2022/05/20 01:07:25;;;;;;;;;;;;;;;18.25;73.65;97388.66;30001;982;1882;-56
2022/05/20 01:07:57;;;;;;;;;;;;;;;18.29;73.68;97383.31;30001;982;1877;-57
2022/05/20 01:08:32;;;;;;;;;;;;;;;18.27;73.19;97389.16;30001;982;1882;-57
2022/05/20 01:09:03;;;;;;;;;;;;;;;18.31;73.41;97383.78;30001;982;1878;-57
2022/05/20 01:09:38;;;;;;;;;;;;;;;18.35;73.18;97382.00;30001;982;1882;-57
2022/05/20 01:10:09;;;;;;;;;;;;;;;18.32;73.48;97388.16;30001;982;1878;-57
2022/05/20 01:10:41;;;;;;;;;;;;;;;18.29;73.49;97378.63;30001;983;1868;-59
2022/05/20 01:11:12;;;;;;;;;;;;;;;18.31;73.57;97383.78;30001;983;1868;-59
2022/05/20 01:11:43;;;;;;;;;;;;;;;18.28;73.52;97379.75;30001;983;1881;-58
2022/05/20 01:12:13;;;;;;;;;;;;;;;18.25;73.88;97379.63;30001;983;1877;-57
2022/05/20 01:12:44;;;;;;;;;;;;;;;18.23;73.55;97387.37;30001;983;1881;-57
2022/05/20 01:13:18;;;;;;;;;;;;;;;18.20;74.09;97385.28;30001;983;1877;-56
2022/05/20 01:13:49;;;;;;;;;;;;;;;18.19;73.99;97386.44;30001;983;1881;-57
2022/05/20 01:14:21;;;;;;;;;;;;;;;18.16;74.25;97387.09;30001;983;1877;-57
2022/05/20 01:14:52;;;;;;;;;;;;;;;18.12;74.24;97386.13;30001;982;1882;-56
2022/05/20 01:15:26;;;;;;;;;;;;;;;18.12;74.54;97397.91;30001;982;1877;-57
2022/05/20 01:16:02;;;;;;;;;;;;;;;18.09;74.44;97393.87;30001;985;1869;-57
2022/05/20 01:16:33;;;;;;;;;;;;;;;18.08;74.47;97397.78;30001;982;1869;-57
2022/05/20 01:17:04;;;;;;;;;;;;;;;18.08;74.56;97392.28;30001;982;1882;-57
2022/05/20 01:17:36;;;;;;;;;;;;;;;18.06;74.54;97389.06;30001;982;1877;-58
2022/05/20 01:18:08;;;;;;;;;;;;;;;18.07;74.18;97387.91;30001;983;1881;-56
2022/05/20 01:18:42;;;;;;;;;;;;;;;18.07;74.51;97389.84;30001;983;1877;-56
2022/05/20 01:19:16;;;;;;;;;;;;;;;18.06;74.33;97389.06;30001;983;1881;-57
2022/05/20 01:19:51;;;;;;;;;;;;;;;18.06;74.51;97394.53;30001;983;1877;-58
2022/05/20 01:20:28;;;;;;;;;;;;;;;18.04;74.19;97396.00;30001;983;1881;-57
2022/05/20 01:20:59;;;;;;;;;;;;;;;18.00;74.54;97384.91;30001;983;1864;-57
2022/05/20 01:21:30;;;;;;;;;;;;;;;17.99;74.45;97388.78;30001;983;1873;-57
2022/05/20 01:22:01;;;;;;;;;;;;;;;17.99;74.98;97388.78;30001;983;1877;-57
2022/05/20 01:22:48;;;;;;;;;;;;;;;18.01;74.56;97397.50;30001;982;1881;-57
2022/05/20 01:23:21;;;;;;;;;;;;;;;17.99;74.86;97393.47;30001;982;1877;-56
2022/05/20 01:23:58;;;;;;;;;;;;;;;17.99;74.78;97394.28;30001;982;1882;-56
2022/05/20 01:24:29;;;;;;;;;;;;;;;18.01;74.53;97392.00;30001;982;1877;-57
2022/05/20 01:25:01;;;;;;;;;;;;;;;18.02;74.71;97390.84;30001;982;1882;-57
2022/05/20 01:25:32;;;;;;;;;;;;;;;18.00;74.68;97395.88;30001;983;1877;-57
2022/05/20 01:26:05;;;;;;;;;;;;;;;17.98;74.83;97392.66;30001;982;1868;-58
2022/05/20 01:26:38;;;;;;;;;;;;;;;17.99;74.90;97394.28;30001;983;1868;-57
2022/05/20 01:27:09;;;;;;;;;;;;;;;17.98;74.75;97400.91;30001;983;1881;-58
2022/05/20 01:27:42;;;;;;;;;;;;;;;18.01;74.84;97397.50;30001;983;1877;-57
2022/05/20 01:28:13;;;;;;;;;;;;;;;18.00;74.80;97390.41;30001;983;1881;-58
2022/05/20 01:28:44;;;;;;;;;;;;;;;18.00;74.77;97395.88;30001;983;1877;-57
2022/05/20 01:29:15;;;;;;;;;;;;;;;18.01;74.72;97392.00;30001;982;1882;-57
2022/05/20 01:29:46;;;;;;;;;;;;;;;17.99;74.99;97394.28;30001;982;1877;-57
2022/05/20 01:30:19;;;;;;;;;;;;;;;17.98;74.82;97391.84;30001;982;1882;-57
2022/05/20 01:30:52;;;;;;;;;;;;;;;17.98;74.96;97389.09;30001;982;1869;-58
2022/05/20 01:31:23;;;;;;;;;;;;;;;17.97;75.20;97391.03;30001;982;1864;-55
2022/05/20 01:31:54;;;;;;;;;;;;;;;17.97;75.16;97388.31;30001;982;1882;-57
2022/05/20 01:32:26;;;;;;;;;;;;;;;17.99;74.95;97393.47;30001;983;1885;-57
2022/05/20 01:33:00;;;;;;;;;;;;;;;17.99;74.91;97383.28;30001;983;1881;-57
2022/05/20 01:33:33;;;;;;;;;;;;;;;17.97;74.97;97391.03;30001;983;1886;-57
2022/05/20 01:34:04;;;;;;;;;;;;;;;17.98;74.98;97391.84;30001;983;1881;-58
2022/05/20 01:34:34;;;;;;;;;;;;;;;17.96;74.77;97391.38;30001;983;1800;-57
2022/05/20 01:35:08;;;;;;;;;;;;;;;17.96;75.20;97394.94;30001;983;1881;-57
2022/05/20 01:35:41;;;;;;;;;;;;;;;17.93;75.07;97390.09;30001;983;1886;-57
2022/05/20 01:36:16;;;;;;;;;;;;;;;17.92;75.23;97393.97;30001;983;1882;-57
2022/05/20 01:36:47;;;;;;;;;;;;;;;17.90;75.38;97396.22;30001;982;1873;-57
2022/05/20 01:37:18;;;;;;;;;;;;;;;17.88;75.43;97393.00;30001;982;1873;-57
2022/05/20 01:37:48;;;;;;;;;;;;;;;17.88;75.32;97400.44;30001;982;1886;-57
2022/05/20 01:38:19;;;;;;;;;;;;;;;17.87;75.67;97402.37;30001;982;1882;-58
2022/05/20 01:38:52;;;;;;;;;;;;;;;17.85;75.34;97390.91;30001;982;1886;-58
2022/05/20 01:39:23;;;;;;;;;;;;;;;17.85;75.41;97396.41;30001;982;1882;-58
2022/05/20 01:39:54;;;;;;;;;;;;;;;17.87;75.52;97388.66;30001;983;1885;-58
2022/05/20 01:40:27;;;;;;;;;;;;;;;17.87;75.86;97390.59;30001;983;1881;-57
2022/05/20 01:41:08;;;;;;;;;;;;;;;17.87;75.94;97390.59;30001;983;1885;-57
2022/05/20 01:41:46;;;;;;;;;;;;;;;17.90;75.59;97381.69;30001;983;1881;-56
2022/05/20 01:42:30;;;;;;;;;;;;;;;17.89;75.75;97386.37;30001;983;1873;-57
2022/05/20 01:43:05;;;;;;;;;;;;;;;17.86;75.56;97389.78;30001;983;1873;-58
2022/05/20 01:43:54;;;;;;;;;;;;;;;17.87;75.40;97393.34;30001;983;1886;-58
2022/05/20 01:44:31;;;;;;;;;;;;;;;17.85;75.62;97390.91;30001;982;1882;-58
2022/05/20 01:45:06;;;;;;;;;;;;;;;17.85;75.48;97384.63;30001;982;1886;-59
2022/05/20 01:45:44;;;;;;;;;;;;;;;17.86;75.82;97384.28;30001;982;1882;-57
2022/05/20 01:46:23;;;;;;;;;;;;;;;17.86;75.47;97380.75;30001;982;1886;-58
2022/05/20 01:47:12;;;;;;;;;;;;;;;17.84;75.49;97386.56;30001;983;1881;-57
2022/05/20 01:47:47;;;;;;;;;;;;;;;17.87;75.62;97387.84;30001;983;1864;-57
2022/05/20 01:48:35;;;;;;;;;;;;;;;17.90;75.49;97385.25;30001;983;1872;-57
2022/05/20 01:49:23;;;;;;;;;;;;;;;17.89;75.49;97383.62;30001;983;1885;-57
2022/05/20 01:50:07;;;;;;;;;;;;;;;17.88;75.67;97382.03;30001;983;1881;-57
2022/05/20 01:50:45;;;;;;;;;;;;;;;17.87;75.63;97380.41;30001;983;1886;-57
2022/05/20 01:51:17;;;;;;;;;;;;;;;17.89;75.41;97382.84;30001;983;1881;-57
2022/05/20 01:52:06;;;;;;;;;;;;;;;17.89;75.31;97386.37;30001;974;1897;-57
2022/05/20 01:52:40;;;;;;;;;;;;;;;17.88;75.49;97382.03;30001;982;1877;-56
2022/05/20 01:53:13;;;;;;;;;;;;;;;17.87;75.52;97374.91;30001;982;1869;-57
2022/05/20 01:53:47;;;;;;;;;;;;;;;17.88;75.56;97382.03;30001;982;1877;-58
2022/05/20 01:54:22;;;;;;;;;;;;;;;17.89;75.41;97378.16;30001;983;1881;-56
2022/05/20 01:55:08;;;;;;;;;;;;;;;17.91;75.39;97381.38;30001;983;1885;-57
2022/05/20 01:55:53;;;;;;;;;;;;;;;17.94;75.00;97374.41;30001;983;1881;-58
2022/05/20 01:56:39;;;;;;;;;;;;;;;17.94;75.37;97377.97;30001;983;1886;-57
2022/05/20 01:57:17;;;;;;;;;;;;;;;17.94;75.06;97377.97;30001;983;1881;-59
2022/05/20 01:58:09;;;;;;;;;;;;;;;17.92;75.27;97366.50;30001;983;1886;-57
2022/05/20 01:58:45;;;;;;;;;;;;;;;17.90;75.57;97374.28;30001;983;1868;-56
2022/05/20 01:59:20;;;;;;;;;;;;;;;17.94;75.55;97371.69;30001;982;1877;-56
2022/05/20 01:59:54;;;;;;;;;;;;;;;17.95;74.84;97367.81;30001;982;1882;-57
2022/05/20 02:00:27;;;;;;;;;;;;;;;17.92;75.28;97372.00;30001;982;1886;-57
2022/05/20 02:01:00;;;;;;;;;;;;;;;17.90;75.25;97373.47;30001;982;1882;-57
2022/05/20 02:01:40;;;;;;;;;;;;;;;17.85;75.41;97371.69;30001;983;1885;-56
2022/05/20 02:02:17;;;;;;;;;;;;;;;17.82;75.54;97372.34;30001;983;1881;-58
2022/05/20 02:03:00;;;;;;;;;;;;;;;17.83;76.05;97370.41;30001;983;1886;-56
2022/05/20 02:03:38;;;;;;;;;;;;;;;17.83;75.58;97373.97;30001;983;1881;-56
2022/05/20 02:04:19;;;;;;;;;;;;;;;17.82;75.65;97363.31;30001;983;1873;-57
2022/05/20 02:04:53;;;;;;;;;;;;;;;17.82;75.74;97368.81;30001;965;1891;-58
2022/05/20 02:05:27;;;;;;;;;;;;;;;17.81;75.75;97359.75;30001;983;1886;-59
2022/05/20 02:06:16;;;;;;;;;;;;;;;17.79;75.72;97367.50;30001;983;1882;-57
2022/05/20 02:06:52;;;;;;;;;;;;;;;17.77;76.01;97368.97;30001;982;1877;-59
2022/05/20 02:07:26;;;;;;;;;;;;;;;17.78;75.64;97365.91;30001;982;1882;-58
2022/05/20 02:08:02;;;;;;;;;;;;;;;17.82;75.89;97371.53;30001;982;1886;-56
2022/05/20 02:08:46;;;;;;;;;;;;;;;17.81;75.35;97365.25;30001;982;1882;-59
2022/05/20 02:09:19;;;;;;;;;;;;;;;17.81;75.75;97368.00;30001;983;1872;-56
2022/05/20 02:10:03;;;;;;;;;;;;;;;17.80;75.77;97365.56;30001;983;1872;-56
2022/05/20 02:10:39;;;;;;;;;;;;;;;17.76;75.58;97359.94;30001;983;1886;-57
2022/05/20 02:11:29;;;;;;;;;;;;;;;17.75;75.70;97367.38;30001;983;1881;-57
2022/05/20 02:12:01;;;;;;;;;;;;;;;17.72;75.80;97367.22;30001;983;1881;-57
2022/05/20 02:12:36;;;;;;;;;;;;;;;17.71;75.93;97365.59;30001;983;1882;-57
2022/05/20 02:13:10;;;;;;;;;;;;;;;17.68;76.08;97367.06;30001;983;1886;-56
2022/05/20 02:13:44;;;;;;;;;;;;;;;17.66;76.38;97366.59;30001;983;1882;-56
2022/05/20 02:14:27;;;;;;;;;;;;;;;17.67;76.08;97370.16;30001;982;1886;-56
2022/05/20 02:15:03;;;;;;;;;;;;;;;17.71;75.88;97363.66;30001;982;1869;-59
2022/05/20 02:15:52;;;;;;;;;;;;;;;17.78;75.55;97365.91;30001;982;1877;-57
2022/05/20 02:16:33;;;;;;;;;;;;;;;17.79;75.52;97369.47;30001;982;1882;-57
2022/05/20 02:17:13;;;;;;;;;;;;;;;17.80;75.69;97366.38;30001;983;1885;-56
2022/05/20 02:17:47;;;;;;;;;;;;;;;17.83;75.37;97362.97;30001;983;1881;-56
2022/05/20 02:18:44;;;;;;;;;;;;;;;17.81;75.83;97369.94;30001;983;1885;-57
2022/05/20 02:19:21;;;;;;;;;;;;;;;17.79;75.40;97370.25;30001;983;1877;-58
2022/05/20 02:20:04;;;;;;;;;;;;;;;17.80;75.73;97363.63;30001;983;1886;-56
2022/05/20 02:20:43;;;;;;;;;;;;;;;17.81;75.54;97367.19;30001;983;1868;-57
2022/05/20 02:21:16;;;;;;;;;;;;;;;17.79;75.43;97370.25;30001;982;1877;-56
2022/05/20 02:21:50;;;;;;;;;;;;;;;17.78;75.64;97371.41;30001;982;1882;-56
2022/05/20 02:22:24;;;;;;;;;;;;;;;17.77;75.88;97371.72;30001;982;1886;-57
2022/05/20 02:22:59;;;;;;;;;;;;;;;17.78;75.70;97365.09;30001;982;1882;-58
2022/05/20 02:23:35;;;;;;;;;;;;;;;17.77;75.88;97383.50;30001;982;1873;-57
2022/05/20 02:24:08;;;;;;;;;;;;;;;17.78;75.73;97371.41;30001;982;1873;-57
2022/05/20 02:24:40;;;;;;;;;;;;;;;17.79;75.72;97378.50;30001;983;1885;-57
2022/05/20 02:25:13;;;;;;;;;;;;;;;17.78;75.60;97376.88;30001;983;1881;-57
2022/05/20 02:25:47;;;;;;;;;;;;;;;17.78;75.81;97376.06;30001;983;1872;-56
2022/05/20 02:26:21;;;;;;;;;;;;;;;17.77;75.79;97380.75;30001;983;1873;-57
2022/05/20 02:26:59;;;;;;;;;;;;;;;17.76;75.87;97379.16;30001;983;1886;-57
2022/05/20 02:27:32;;;;;;;;;;;;;;;17.76;75.80;97379.16;30001;983;1881;-56
2022/05/20 02:28:06;;;;;;;;;;;;;;;17.78;75.88;97374.13;30001;983;1886;-57
2022/05/20 02:28:39;;;;;;;;;;;;;;;17.79;75.44;97375.75;30001;982;1882;-57
2022/05/20 02:29:15;;;;;;;;;;;;;;;17.79;76.20;97386.72;30001;982;1873;-57
2022/05/20 02:29:49;;;;;;;;;;;;;;;17.79;75.87;97378.50;30001;982;1873;-56
2022/05/20 02:30:22;;;;;;;;;;;;;;;17.81;75.98;97376.22;30001;982;1886;-56
2022/05/20 02:30:58;;;;;;;;;;;;;;;17.84;75.55;97380.25;30001;982;1882;-56
2022/05/20 02:31:42;;;;;;;;;;;;;;;17.83;75.47;97382.19;30001;982;1886;-56
2022/05/20 02:32:27;;;;;;;;;;;;;;;17.84;75.52;97381.06;30001;983;1881;-57
2022/05/20 02:33:12;;;;;;;;;;;;;;;17.83;75.37;97379.44;30001;983;1885;-57
2022/05/20 02:33:44;;;;;;;;;;;;;;;17.86;75.52;97378.81;30001;983;1868;-57
2022/05/20 02:34:15;;;;;;;;;;;;;;;17.90;75.22;97379.75;30001;983;1877;-57
2022/05/20 02:34:47;;;;;;;;;;;;;;;17.91;74.84;97381.38;30001;983;1881;-57
2022/05/20 02:35:18;;;;;;;;;;;;;;;17.93;75.19;97378.31;30001;983;1886;-57
2022/05/20 02:35:49;;;;;;;;;;;;;;;17.94;74.74;97380.72;30001;964;1901;-56
2022/05/20 02:36:24;;;;;;;;;;;;;;;17.94;74.90;97391.69;30001;982;1873;-56
2022/05/20 02:36:55;;;;;;;;;;;;;;;17.94;74.67;97383.47;30001;982;1873;-56
2022/05/20 02:37:28;;;;;;;;;;;;;;;17.92;75.02;97383.00;30001;982;1873;-57
2022/05/20 02:38:12;;;;;;;;;;;;;;;17.93;74.92;97387.34;30001;982;1873;-56
2022/05/20 02:38:43;;;;;;;;;;;;;;;17.95;74.55;97387.81;30001;982;1886;-56
2022/05/20 02:39:17;;;;;;;;;;;;;;;17.97;75.05;97385.56;30001;982;1882;-59
2022/05/20 02:39:48;;;;;;;;;;;;;;;17.99;74.68;97379.75;30001;983;1885;-57
2022/05/20 02:40:19;;;;;;;;;;;;;;;17.99;74.52;97380.53;30001;983;1881;-57
2022/05/20 02:40:51;;;;;;;;;;;;;;;17.96;74.82;97377.66;30001;983;1886;-57
2022/05/20 02:41:23;;;;;;;;;;;;;;;17.96;74.63;97386.69;30001;983;1868;-56
2022/05/20 02:41:54;;;;;;;;;;;;;;;17.95;74.87;97382.34;30001;983;1877;-58
2022/05/20 02:42:28;;;;;;;;;;;;;;;17.98;74.60;97384.41;30001;983;1881;-59
2022/05/20 02:42:59;;;;;;;;;;;;;;;17.97;74.94;97388.31;30001;983;1873;-57
2022/05/20 02:43:31;;;;;;;;;;;;;;;17.95;74.83;97382.34;30001;982;1873;-60
2022/05/20 02:44:02;;;;;;;;;;;;;;;17.94;74.92;97386.22;30001;982;1886;-57
2022/05/20 02:44:33;;;;;;;;;;;;;;;17.94;74.64;97383.47;30001;982;1882;-57
2022/05/20 02:45:04;;;;;;;;;;;;;;;17.95;75.03;97385.06;30001;982;1886;-56
2022/05/20 02:45:36;;;;;;;;;;;;;;;17.96;74.71;97383.94;30001;982;1882;-57
2022/05/20 02:46:08;;;;;;;;;;;;;;;17.96;74.87;97383.12;30001;982;1886;-57
2022/05/20 02:46:40;;;;;;;;;;;;;;;17.95;74.78;97387.81;30001;982;1882;-57
2022/05/20 02:47:12;;;;;;;;;;;;;;;17.94;74.84;97386.22;30001;983;1885;-58
2022/05/20 02:47:42;;;;;;;;;;;;;;;17.92;74.59;97388.47;30001;983;1881;-59
2022/05/20 02:48:14;;;;;;;;;;;;;;;17.90;74.99;97388.00;30001;983;1872;-60
2022/05/20 02:48:46;;;;;;;;;;;;;;;17.90;75.25;97390.75;30001;983;1859;-56
2022/05/20 02:49:17;;;;;;;;;;;;;;;17.91;75.17;97384.13;30001;983;1886;-57
2022/05/20 02:49:48;;;;;;;;;;;;;;;17.92;74.87;97385.72;30001;983;1881;-58
2022/05/20 02:50:19;;;;;;;;;;;;;;;17.91;75.02;97386.87;30001;965;1904;-57
2022/05/20 02:50:50;;;;;;;;;;;;;;;17.92;74.95;97390.41;30001;983;1882;-57
2022/05/20 02:51:22;;;;;;;;;;;;;;;17.90;74.97;97378.94;30001;982;1886;-57
2022/05/20 02:51:53;;;;;;;;;;;;;;;17.90;74.81;97382.50;30001;982;1882;-57
2022/05/20 02:52:24;;;;;;;;;;;;;;;17.89;75.34;97382.84;30001;982;1886;-57
2022/05/20 02:52:58;;;;;;;;;;;;;;;17.91;75.02;97380.56;30001;982;1882;-57
2022/05/20 02:53:29;;;;;;;;;;;;;;;17.92;75.00;97383.00;30001;982;1886;-58
2022/05/20 02:54:02;;;;;;;;;;;;;;;17.96;74.72;97378.44;30001;983;1868;-57
2022/05/20 02:54:33;;;;;;;;;;;;;;;17.98;74.67;97384.41;30001;983;1876;-58
2022/05/20 02:55:05;;;;;;;;;;;;;;;17.97;74.75;97373.75;30001;983;1881;-57
2022/05/20 02:55:37;;;;;;;;;;;;;;;17.95;74.90;97376.84;30001;983;1886;-56
2022/05/20 02:56:08;;;;;;;;;;;;;;;17.93;74.72;97383.78;30001;983;1881;-58
2022/05/20 02:56:39;;;;;;;;;;;;;;;17.91;74.95;97375.88;30001;983;1885;-57
2022/05/20 02:57:09;;;;;;;;;;;;;;;17.93;74.84;97373.63;30001;983;1881;-58
2022/05/20 02:57:40;;;;;;;;;;;;;;;17.97;74.69;97376.50;30001;983;1886;-59
2022/05/20 03:04:11;;;;;;;;;;;;;;;18.08;74.13;97375.81;30001;983;1873;-57
2022/05/20 03:04:43;;;;;;;;;;;;;;;18.07;74.07;97376.94;30001;983;1860;-57
2022/05/20 03:05:15;;;;;;;;;;;;;;;18.06;73.85;97378.06;30001;983;1873;-57
2022/05/20 03:05:45;;;;;;;;;;;;;;;18.09;73.77;97366.44;30001;983;1873;-57
2022/05/20 03:06:16;;;;;;;;;;;;;;;18.11;74.12;97376.28;30001;982;1886;-57
2022/05/20 03:06:51;;;;;;;;;;;;;;;18.12;73.95;97372.41;30001;982;1882;-57
2022/05/20 03:07:22;;;;;;;;;;;;;;;18.13;73.83;97371.25;30001;982;1886;-56
2022/05/20 03:07:53;;;;;;;;;;;;;;;18.15;73.68;97374.50;30001;982;1882;-57
2022/05/20 03:08:24;;;;;;;;;;;;;;;18.14;73.66;97378.37;30001;982;1873;-57
2022/05/20 03:08:55;;;;;;;;;;;;;;;18.13;73.63;97371.25;30001;983;1872;-56